Terminal Aerodrome Forecast
Issued by NWS Chicago, IL

Home | Current Version | Previous Version | Text Only | Print | Product List | Glossary On
Versions: 1 2 3 4 5 6 7 8 9 10 11 12 13 14 15 16 17 18 19 20 21 22 23 24 25 26 27 28 29 30 31 32 33 34 35
000
FTUS43 KLOT 301100
TAFRFD
TAF
KRFD 301122Z 3012/0112 06010KT P6SM SCT008 OVC015
      TEMPO 3012/3014 -DZ BKN008 OVC015
     FM301400 06008KT P6SM BKN015
     FM302000 08007KT P6SM SCT025
     FM010300 10005KT P6SM SCT015=

USA.gov is the U.S. government's official web portal to all federal, state and local government web resources and services.